sensor_id;sensor_type;location;lat;lon;timestamp;temperature;humidity
5358;DHT22;2702;51.014;7.170;2023-11-21T00:02:17;8.60;99.90
5358;DHT22;2702;51.014;7.170;2023-11-21T00:04:43;8.60;99.90
5358;DHT22;2702;51.014;7.170;2023-11-21T00:07:10;8.60;99.90
5358;DHT22;2702;51.014;7.170;2023-11-21T00:09:36;8.50;99.90
5358;DHT22;2702;51.014;7.170;2023-11-21T00:12:03;8.40;99.90
5358;DHT22;2702;51.014;7.170;2023-11-21T00:14:30;8.40;99.90
5358;DHT22;2702;51.014;7.170;2023-11-21T00:16:57;8.30;99.90
5358;DHT22;2702;51.014;7.170;2023-11-21T00:19:25;8.30;99.90
5358;DHT22;2702;51.014;7.170;2023-11-21T00:21:51;8.30;99.90
5358;DHT22;2702;51.014;7.170;2023-11-21T00:24:18;8.30;99.90
5358;DHT22;2702;51.014;7.170;2023-11-21T00:26:44;8.30;99.90
5358;DHT22;2702;51.014;7.170;2023-11-21T00:29:11;8.40;99.90
5358;DHT22;2702;51.014;7.170;2023-11-21T00:31:37;8.40;99.90
5358;DHT22;2702;51.014;7.170;2023-11-21T00:34:05;8.40;99.90
5358;DHT22;2702;51.014;7.170;2023-11-21T00:36:32;8.30;99.90
5358;DHT22;2702;51.014;7.170;2023-11-21T00:38:58;8.20;99.90
5358;DHT22;2702;51.014;7.170;2023-11-21T00:41:25;8.30;99.90
5358;DHT22;2702;51.014;7.170;2023-11-21T00:43:55;8.20;99.90
5358;DHT22;2702;51.014;7.170;2023-11-21T00:46:22;8.20;99.90
5358;DHT22;2702;51.014;7.170;2023-11-21T00:48:50;8.20;99.90
5358;DHT22;2702;51.014;7.170;2023-11-21T00:51:17;8.20;99.90
5358;DHT22;2702;51.014;7.170;2023-11-21T00:53:43;8.20;99.90
5358;DHT22;2702;51.014;7.170;2023-11-21T00:56:10;8.20;99.90
5358;DHT22;2702;51.014;7.170;2023-11-21T00:58:36;8.20;99.90
5358;DHT22;2702;51.014;7.170;2023-11-21T01:01:03;8.30;99.90
5358;DHT22;2702;51.014;7.170;2023-11-21T01:03:29;8.20;99.90
5358;DHT22;2702;51.014;7.170;2023-11-21T01:05:57;8.10;99.90
5358;DHT22;2702;51.014;7.170;2023-11-21T01:08:23;8.10;99.90
5358;DHT22;2702;51.014;7.170;2023-11-21T01:10:50;8.20;99.90
5358;DHT22;2702;51.014;7.170;2023-11-21T01:13:17;8.20;99.90
5358;DHT22;2702;51.014;7.170;2023-11-21T01:15:43;8.10;99.90
5358;DHT22;2702;51.014;7.170;2023-11-21T01:18:09;8.10;99.90
5358;DHT22;2702;51.014;7.170;2023-11-21T01:20:36;8.10;99.90
5358;DHT22;2702;51.014;7.170;2023-11-21T01:23:02;8.10;99.90
5358;DHT22;2702;51.014;7.170;2023-11-21T01:25:29;8.10;99.90
5358;DHT22;2702;51.014;7.170;2023-11-21T01:27:56;8.10;99.90
5358;DHT22;2702;51.014;7.170;2023-11-21T01:30:22;8.10;99.90
5358;DHT22;2702;51.014;7.170;2023-11-21T01:32:48;8.20;99.90
5358;DHT22;2702;51.014;7.170;2023-11-21T01:35:15;8.10;99.90
5358;DHT22;2702;51.014;7.170;2023-11-21T01:37:42;8.10;99.90
5358;DHT22;2702;51.014;7.170;2023-11-21T01:40:09;8.10;99.90
5358;DHT22;2702;51.014;7.170;2023-11-21T01:42:40;8.10;99.90
5358;DHT22;2702;51.014;7.170;2023-11-21T01:45:08;8.10;99.90
5358;DHT22;2702;51.014;7.170;2023-11-21T01:47:36;8.00;99.90
5358;DHT22;2702;51.014;7.170;2023-11-21T01:50:07;8.10;99.90
5358;DHT22;2702;51.014;7.170;2023-11-21T01:52:38;8.20;99.90
5358;DHT22;2702;51.014;7.170;2023-11-21T01:55:08;8.20;99.90
5358;DHT22;2702;51.014;7.170;2023-11-21T01:57:36;8.30;99.90
5358;DHT22;2702;51.014;7.170;2023-11-21T02:00:06;8.30;99.90
5358;DHT22;2702;51.014;7.170;2023-11-21T02:02:45;8.40;99.90
5358;DHT22;2702;51.014;7.170;2023-11-21T02:05:16;8.50;99.90
5358;DHT22;2702;51.014;7.170;2023-11-21T02:07:45;8.50;99.90
5358;DHT22;2702;51.014;7.170;2023-11-21T02:10:15;8.40;99.90
5358;DHT22;2702;51.014;7.170;2023-11-21T02:12:43;8.40;99.90
5358;DHT22;2702;51.014;7.170;2023-11-21T02:15:14;8.50;99.90
5358;DHT22;2702;51.014;7.170;2023-11-21T02:17:43;8.50;99.90
5358;DHT22;2702;51.014;7.170;2023-11-21T02:20:14;8.40;99.90
5358;DHT22;2702;51.014;7.170;2023-11-21T02:22:57;8.40;99.90
5358;DHT22;2702;51.014;7.170;2023-11-21T02:27:51;8.40;99.90
5358;DHT22;2702;51.014;7.170;2023-11-21T02:30:18;8.30;99.90
5358;DHT22;2702;51.014;7.170;2023-11-21T02:32:46;8.00;99.90
5358;DHT22;2702;51.014;7.170;2023-11-21T02:35:12;8.00;99.90
5358;DHT22;2702;51.014;7.170;2023-11-21T02:37:39;7.90;99.90
5358;DHT22;2702;51.014;7.170;2023-11-21T02:40:10;8.00;99.90
5358;DHT22;2702;51.014;7.170;2023-11-21T02:42:45;8.00;99.90
5358;DHT22;2702;51.014;7.170;2023-11-21T02:45:12;8.00;99.90
5358;DHT22;2702;51.014;7.170;2023-11-21T02:47:40;7.90;99.90
5358;DHT22;2702;51.014;7.170;2023-11-21T02:50:07;7.90;99.90
5358;DHT22;2702;51.014;7.170;2023-11-21T02:52:35;7.80;99.90
5358;DHT22;2702;51.014;7.170;2023-11-21T02:55:02;8.00;99.90
5358;DHT22;2702;51.014;7.170;2023-11-21T02:57:30;8.00;99.90
5358;DHT22;2702;51.014;7.170;2023-11-21T02:59:56;8.10;99.90
5358;DHT22;2702;51.014;7.170;2023-11-21T03:02:23;8.10;99.90
5358;DHT22;2702;51.014;7.170;2023-11-21T03:04:49;8.00;99.90
5358;DHT22;2702;51.014;7.170;2023-11-21T03:07:16;8.10;99.90
5358;DHT22;2702;51.014;7.170;2023-11-21T03:09:42;8.00;99.90
5358;DHT22;2702;51.014;7.170;2023-11-21T03:12:10;8.00;99.90
5358;DHT22;2702;51.014;7.170;2023-11-21T03:14:39;8.00;99.90
5358;DHT22;2702;51.014;7.170;2023-11-21T03:17:06;8.10;99.90
5358;DHT22;2702;51.014;7.170;2023-11-21T03:19:32;8.00;99.90
5358;DHT22;2702;51.014;7.170;2023-11-21T03:21:59;7.90;99.90
5358;DHT22;2702;51.014;7.170;2023-11-21T03:24:26;7.70;99.90
5358;DHT22;2702;51.014;7.170;2023-11-21T03:26:52;7.60;99.90
5358;DHT22;2702;51.014;7.170;2023-11-21T03:29:19;7.60;99.90
5358;DHT22;2702;51.014;7.170;2023-11-21T03:31:45;7.50;99.90
5358;DHT22;2702;51.014;7.170;2023-11-21T03:34:19;7.50;99.90
5358;DHT22;2702;51.014;7.170;2023-11-21T03:36:46;7.50;99.90
5358;DHT22;2702;51.014;7.170;2023-11-21T03:39:13;7.60;99.90
5358;DHT22;2702;51.014;7.170;2023-11-21T03:41:39;7.60;99.90
5358;DHT22;2702;51.014;7.170;2023-11-21T03:44:06;7.70;99.90
5358;DHT22;2702;51.014;7.170;2023-11-21T03:46:33;7.60;99.90
5358;DHT22;2702;51.014;7.170;2023-11-21T03:48:59;7.70;99.90
5358;DHT22;2702;51.014;7.170;2023-11-21T03:51:26;7.80;99.90
5358;DHT22;2702;51.014;7.170;2023-11-21T03:53:52;7.70;99.90
5358;DHT22;2702;51.014;7.170;2023-11-21T03:56:20;7.70;99.90
5358;DHT22;2702;51.014;7.170;2023-11-21T03:58:50;7.70;99.90
5358;DHT22;2702;51.014;7.170;2023-11-21T04:01:22;7.70;99.90
5358;DHT22;2702;51.014;7.170;2023-11-21T04:03:49;7.70;99.90
5358;DHT22;2702;51.014;7.170;2023-11-21T04:06:17;7.70;99.90
5358;DHT22;2702;51.014;7.170;2023-11-21T04:08:44;7.80;99.90
5358;DHT22;2702;51.014;7.170;2023-11-21T04:11:12;7.80;99.90
5358;DHT22;2702;51.014;7.170;2023-11-21T04:13:39;7.80;99.90
5358;DHT22;2702;51.014;7.170;2023-11-21T04:16:07;7.80;99.90
5358;DHT22;2702;51.014;7.170;2023-11-21T04:18:37;7.90;99.90
5358;DHT22;2702;51.014;7.170;2023-11-21T04:21:05;8.00;99.90
5358;DHT22;2702;51.014;7.170;2023-11-21T04:23:32;7.90;99.90
5358;DHT22;2702;51.014;7.170;2023-11-21T04:25:59;8.00;99.90
5358;DHT22;2702;51.014;7.170;2023-11-21T04:28:25;8.00;99.90
5358;DHT22;2702;51.014;7.170;2023-11-21T04:30:52;8.00;99.90
5358;DHT22;2702;51.014;7.170;2023-11-21T04:33:18;8.00;99.90
5358;DHT22;2702;51.014;7.170;2023-11-21T04:35:45;8.20;99.90
5358;DHT22;2702;51.014;7.170;2023-11-21T04:38:12;8.20;99.90
5358;DHT22;2702;51.014;7.170;2023-11-21T04:40:38;8.30;99.90
5358;DHT22;2702;51.014;7.170;2023-11-21T04:43:05;8.40;99.90
5358;DHT22;2702;51.014;7.170;2023-11-21T04:45:32;8.50;99.90
5358;DHT22;2702;51.014;7.170;2023-11-21T04:47:59;8.50;99.90
5358;DHT22;2702;51.014;7.170;2023-11-21T04:50:25;8.50;99.90
5358;DHT22;2702;51.014;7.170;2023-11-21T04:52:53;8.50;99.90
5358;DHT22;2702;51.014;7.170;2023-11-21T04:55:20;8.50;99.90
5358;DHT22;2702;51.014;7.170;2023-11-21T04:57:46;8.50;99.90
5358;DHT22;2702;51.014;7.170;2023-11-21T05:00:13;8.50;99.90
5358;DHT22;2702;51.014;7.170;2023-11-21T05:02:40;8.50;99.90
5358;DHT22;2702;51.014;7.170;2023-11-21T05:05:07;8.40;99.90
5358;DHT22;2702;51.014;7.170;2023-11-21T05:07:36;8.50;99.90
5358;DHT22;2702;51.014;7.170;2023-11-21T05:10:06;8.50;99.90
5358;DHT22;2702;51.014;7.170;2023-11-21T05:12:42;8.50;99.90
5358;DHT22;2702;51.014;7.170;2023-11-21T05:15:09;8.50;99.90
5358;DHT22;2702;51.014;7.170;2023-11-21T05:17:37;8.30;99.90
5358;DHT22;2702;51.014;7.170;2023-11-21T05:20:04;8.30;99.90
5358;DHT22;2702;51.014;7.170;2023-11-21T05:22:35;8.30;99.90
5358;DHT22;2702;51.014;7.170;2023-11-21T05:25:02;8.30;99.90
5358;DHT22;2702;51.014;7.170;2023-11-21T05:27:30;8.30;99.90
5358;DHT22;2702;51.014;7.170;2023-11-21T05:30:01;8.30;99.90
5358;DHT22;2702;51.014;7.170;2023-11-21T05:32:32;8.30;99.90
5358;DHT22;2702;51.014;7.170;2023-11-21T05:34:58;8.40;99.90
5358;DHT22;2702;51.014;7.170;2023-11-21T05:37:25;8.40;99.90
5358;DHT22;2702;51.014;7.170;2023-11-21T05:39:53;8.40;99.90
5358;DHT22;2702;51.014;7.170;2023-11-21T05:42:23;8.50;99.90
5358;DHT22;2702;51.014;7.170;2023-11-21T05:44:49;8.50;99.90
5358;DHT22;2702;51.014;7.170;2023-11-21T05:47:16;8.60;99.90
5358;DHT22;2702;51.014;7.170;2023-11-21T05:49:43;8.60;99.90
5358;DHT22;2702;51.014;7.170;2023-11-21T05:52:11;8.70;99.90
5358;DHT22;2702;51.014;7.170;2023-11-21T05:54:37;8.70;99.90
5358;DHT22;2702;51.014;7.170;2023-11-21T05:57:07;8.70;99.90
5358;DHT22;2702;51.014;7.170;2023-11-21T05:59:33;8.70;99.90
5358;DHT22;2702;51.014;7.170;2023-11-21T06:01:59;8.70;99.90
5358;DHT22;2702;51.014;7.170;2023-11-21T06:04:26;8.70;99.90
5358;DHT22;2702;51.014;7.170;2023-11-21T06:06:53;8.70;99.90
5358;DHT22;2702;51.014;7.170;2023-11-21T06:09:20;8.80;99.90
5358;DHT22;2702;51.014;7.170;2023-11-21T06:11:47;8.80;99.90
5358;DHT22;2702;51.014;7.170;2023-11-21T06:14:13;8.80;99.90
5358;DHT22;2702;51.014;7.170;2023-11-21T06:16:41;8.90;99.90
5358;DHT22;2702;51.014;7.170;2023-11-21T06:19:08;8.80;99.90
5358;DHT22;2702;51.014;7.170;2023-11-21T06:21:34;8.80;99.90
5358;DHT22;2702;51.014;7.170;2023-11-21T06:24:01;8.70;99.90
5358;DHT22;2702;51.014;7.170;2023-11-21T06:26:28;8.80;99.90
5358;DHT22;2702;51.014;7.170;2023-11-21T06:28:54;8.80;99.90
5358;DHT22;2702;51.014;7.170;2023-11-21T06:31:21;8.80;99.90
5358;DHT22;2702;51.014;7.170;2023-11-21T06:33:47;8.80;99.90
5358;DHT22;2702;51.014;7.170;2023-11-21T06:36:14;8.80;99.90
5358;DHT22;2702;51.014;7.170;2023-11-21T06:38:40;8.90;99.90
5358;DHT22;2702;51.014;7.170;2023-11-21T06:41:07;8.90;99.90
5358;DHT22;2702;51.014;7.170;2023-11-21T06:43:33;8.90;99.90
5358;DHT22;2702;51.014;7.170;2023-11-21T06:46:00;8.80;99.90
5358;DHT22;2702;51.014;7.170;2023-11-21T06:48:26;8.70;99.90
5358;DHT22;2702;51.014;7.170;2023-11-21T06:50:53;8.70;99.90
5358;DHT22;2702;51.014;7.170;2023-11-21T06:53:19;8.70;99.90
5358;DHT22;2702;51.014;7.170;2023-11-21T06:55:46;8.60;99.90
5358;DHT22;2702;51.014;7.170;2023-11-21T06:58:12;8.60;99.90
5358;DHT22;2702;51.014;7.170;2023-11-21T07:00:43;8.60;99.90
5358;DHT22;2702;51.014;7.170;2023-11-21T07:03:14;8.60;99.90
5358;DHT22;2702;51.014;7.170;2023-11-21T07:05:40;8.50;99.90
5358;DHT22;2702;51.014;7.170;2023-11-21T07:08:07;8.40;99.90
5358;DHT22;2702;51.014;7.170;2023-11-21T07:10:33;8.40;99.90
5358;DHT22;2702;51.014;7.170;2023-11-21T07:13:01;8.40;99.90
5358;DHT22;2702;51.014;7.170;2023-11-21T07:15:28;8.40;99.90
5358;DHT22;2702;51.014;7.170;2023-11-21T07:17:54;8.40;99.90
5358;DHT22;2702;51.014;7.170;2023-11-21T07:20:21;8.40;99.90
5358;DHT22;2702;51.014;7.170;2023-11-21T07:22:47;8.40;99.90
5358;DHT22;2702;51.014;7.170;2023-11-21T07:25:14;8.30;99.90
5358;DHT22;2702;51.014;7.170;2023-11-21T07:27:40;8.30;99.90
5358;DHT22;2702;51.014;7.170;2023-11-21T07:30:08;8.20;99.90
5358;DHT22;2702;51.014;7.170;2023-11-21T07:32:36;8.10;99.90
5358;DHT22;2702;51.014;7.170;2023-11-21T07:35:03;8.10;99.90
5358;DHT22;2702;51.014;7.170;2023-11-21T07:37:34;8.20;99.90
5358;DHT22;2702;51.014;7.170;2023-11-21T07:40:00;8.20;99.90
5358;DHT22;2702;51.014;7.170;2023-11-21T07:42:27;8.10;99.90
5358;DHT22;2702;51.014;7.170;2023-11-21T07:44:53;8.10;99.90
5358;DHT22;2702;51.014;7.170;2023-11-21T07:47:19;8.10;99.90
5358;DHT22;2702;51.014;7.170;2023-11-21T07:49:46;8.00;99.90
5358;DHT22;2702;51.014;7.170;2023-11-21T07:52:13;8.10;99.90
5358;DHT22;2702;51.014;7.170;2023-11-21T07:54:42;8.10;99.90
5358;DHT22;2702;51.014;7.170;2023-11-21T07:57:09;8.10;99.90
5358;DHT22;2702;51.014;7.170;2023-11-21T07:59:40;8.20;99.90
5358;DHT22;2702;51.014;7.170;2023-11-21T08:02:07;8.30;99.90
5358;DHT22;2702;51.014;7.170;2023-11-21T08:04:34;8.40;99.90
5358;DHT22;2702;51.014;7.170;2023-11-21T08:07:02;8.50;99.90
5358;DHT22;2702;51.014;7.170;2023-11-21T08:09:33;8.60;99.90
5358;DHT22;2702;51.014;7.170;2023-11-21T08:12:00;8.70;99.90
5358;DHT22;2702;51.014;7.170;2023-11-21T08:14:28;8.70;99.90
5358;DHT22;2702;51.014;7.170;2023-11-21T08:16:55;8.80;99.90
5358;DHT22;2702;51.014;7.170;2023-11-21T08:19:24;8.70;99.90
5358;DHT22;2702;51.014;7.170;2023-11-21T08:21:54;8.60;99.90
5358;DHT22;2702;51.014;7.170;2023-11-21T08:24:21;8.70;99.90
5358;DHT22;2702;51.014;7.170;2023-11-21T08:26:48;8.70;99.90
5358;DHT22;2702;51.014;7.170;2023-11-21T08:29:16;8.60;99.90
5358;DHT22;2702;51.014;7.170;2023-11-21T08:31:42;8.70;99.90
5358;DHT22;2702;51.014;7.170;2023-11-21T08:34:11;8.70;99.90
5358;DHT22;2702;51.014;7.170;2023-11-21T08:36:42;8.40;99.90
5358;DHT22;2702;51.014;7.170;2023-11-21T08:39:09;8.30;99.90
5358;DHT22;2702;51.014;7.170;2023-11-21T08:41:36;8.10;99.90
5358;DHT22;2702;51.014;7.170;2023-11-21T08:44:03;8.10;99.90
5358;DHT22;2702;51.014;7.170;2023-11-21T08:46:33;8.00;99.90
5358;DHT22;2702;51.014;7.170;2023-11-21T08:49:04;7.90;99.90
5358;DHT22;2702;51.014;7.170;2023-11-21T08:51:30;8.00;99.90
5358;DHT22;2702;51.014;7.170;2023-11-21T08:53:57;8.00;99.90
5358;DHT22;2702;51.014;7.170;2023-11-21T08:56:27;8.00;99.90
5358;DHT22;2702;51.014;7.170;2023-11-21T08:58:54;7.90;99.90
5358;DHT22;2702;51.014;7.170;2023-11-21T09:01:20;8.10;99.90
5358;DHT22;2702;51.014;7.170;2023-11-21T09:03:47;8.00;99.90
5358;DHT22;2702;51.014;7.170;2023-11-21T09:06:14;8.00;99.90
5358;DHT22;2702;51.014;7.170;2023-11-21T09:08:40;8.10;99.90
5358;DHT22;2702;51.014;7.170;2023-11-21T09:11:08;8.20;99.90
5358;DHT22;2702;51.014;7.170;2023-11-21T09:13:35;8.30;99.90
5358;DHT22;2702;51.014;7.170;2023-11-21T09:16:02;8.40;99.90
5358;DHT22;2702;51.014;7.170;2023-11-21T09:18:29;8.30;99.90
5358;DHT22;2702;51.014;7.170;2023-11-21T09:20:55;8.30;99.90
5358;DHT22;2702;51.014;7.170;2023-11-21T09:23:22;8.20;99.90
5358;DHT22;2702;51.014;7.170;2023-11-21T09:25:48;8.40;99.90
5358;DHT22;2702;51.014;7.170;2023-11-21T09:28:16;8.50;99.90
5358;DHT22;2702;51.014;7.170;2023-11-21T09:30:43;8.40;99.90
5358;DHT22;2702;51.014;7.170;2023-11-21T09:33:10;8.40;99.90
5358;DHT22;2702;51.014;7.170;2023-11-21T09:35:39;8.40;99.90
5358;DHT22;2702;51.014;7.170;2023-11-21T09:38:05;8.40;99.90
5358;DHT22;2702;51.014;7.170;2023-11-21T09:40:37;8.40;99.90
5358;DHT22;2702;51.014;7.170;2023-11-21T09:43:09;8.30;99.90
5358;DHT22;2702;51.014;7.170;2023-11-21T09:45:46;8.40;99.90
5358;DHT22;2702;51.014;7.170;2023-11-21T09:48:14;8.30;99.90
5358;DHT22;2702;51.014;7.170;2023-11-21T09:50:43;8.30;99.90
5358;DHT22;2702;51.014;7.170;2023-11-21T09:53:20;8.30;99.90
5358;DHT22;2702;51.014;7.170;2023-11-21T09:55:48;8.30;99.90
5358;DHT22;2702;51.014;7.170;2023-11-21T09:58:17;8.40;99.90
5358;DHT22;2702;51.014;7.170;2023-11-21T10:00:47;8.40;99.90
5358;DHT22;2702;51.014;7.170;2023-11-21T10:03:14;8.50;99.90
5358;DHT22;2702;51.014;7.170;2023-11-21T10:05:45;8.50;99.90
5358;DHT22;2702;51.014;7.170;2023-11-21T10:08:16;8.50;99.90
5358;DHT22;2702;51.014;7.170;2023-11-21T10:10:45;8.50;99.90
5358;DHT22;2702;51.014;7.170;2023-11-21T10:13:13;8.60;99.90
5358;DHT22;2702;51.014;7.170;2023-11-21T10:15:43;8.60;99.90
5358;DHT22;2702;51.014;7.170;2023-11-21T10:18:15;8.60;99.90
5358;DHT22;2702;51.014;7.170;2023-11-21T10:20:41;8.70;99.90
5358;DHT22;2702;51.014;7.170;2023-11-21T10:23:09;8.70;99.90
5358;DHT22;2702;51.014;7.170;2023-11-21T10:25:40;8.70;99.90
5358;DHT22;2702;51.014;7.170;2023-11-21T10:28:06;8.70;99.90
5358;DHT22;2702;51.014;7.170;2023-11-21T10:30:35;8.80;99.90
5358;DHT22;2702;51.014;7.170;2023-11-21T10:33:07;8.80;99.90
5358;DHT22;2702;51.014;7.170;2023-11-21T10:35:43;8.80;99.90
5358;DHT22;2702;51.014;7.170;2023-11-21T10:38:14;8.80;99.90
5358;DHT22;2702;51.014;7.170;2023-11-21T10:40:41;8.80;99.90
5358;DHT22;2702;51.014;7.170;2023-11-21T10:43:09;8.80;99.90
5358;DHT22;2702;51.014;7.170;2023-11-21T10:45:39;8.80;99.90
5358;DHT22;2702;51.014;7.170;2023-11-21T10:48:10;8.70;99.90
5358;DHT22;2702;51.014;7.170;2023-11-21T10:50:38;8.70;99.90
5358;DHT22;2702;51.014;7.170;2023-11-21T10:53:04;8.80;99.90
5358;DHT22;2702;51.014;7.170;2023-11-21T10:55:35;8.80;99.90
5358;DHT22;2702;51.014;7.170;2023-11-21T10:58:04;8.80;99.90
5358;DHT22;2702;51.014;7.170;2023-11-21T11:00:33;9.00;99.90
5358;DHT22;2702;51.014;7.170;2023-11-21T11:03:00;8.90;99.90
5358;DHT22;2702;51.014;7.170;2023-11-21T11:05:28;8.70;99.90
5358;DHT22;2702;51.014;7.170;2023-11-21T11:07:59;8.60;99.90
5358;DHT22;2702;51.014;7.170;2023-11-21T11:10:30;8.70;99.90
5358;DHT22;2702;51.014;7.170;2023-11-21T11:12:57;8.60;99.90
5358;DHT22;2702;51.014;7.170;2023-11-21T11:15:25;8.70;99.90
5358;DHT22;2702;51.014;7.170;2023-11-21T11:17:53;8.70;99.90
5358;DHT22;2702;51.014;7.170;2023-11-21T11:20:33;8.80;99.90
5358;DHT22;2702;51.014;7.170;2023-11-21T11:28:51;8.80;99.90
5358;DHT22;2702;51.014;7.170;2023-11-21T11:31:28;8.90;99.90
5358;DHT22;2702;51.014;7.170;2023-11-21T11:34:29;8.80;99.90
5358;DHT22;2702;51.014;7.170;2023-11-21T11:37:05;8.80;99.90
5358;DHT22;2702;51.014;7.170;2023-11-21T11:39:38;8.80;99.90
5358;DHT22;2702;51.014;7.170;2023-11-21T11:42:12;8.80;99.90
5358;DHT22;2702;51.014;7.170;2023-11-21T11:47:29;9.00;99.90
5358;DHT22;2702;51.014;7.170;2023-11-21T11:50:06;9.10;99.90
5358;DHT22;2702;51.014;7.170;2023-11-21T11:52:37;9.20;99.90
5358;DHT22;2702;51.014;7.170;2023-11-21T11:55:16;9.20;99.90
5358;DHT22;2702;51.014;7.170;2023-11-21T11:57:54;9.20;99.90
5358;DHT22;2702;51.014;7.170;2023-11-21T12:02:57;9.20;99.90
5358;DHT22;2702;51.014;7.170;2023-11-21T12:05:26;9.30;99.90
5358;DHT22;2702;51.014;7.170;2023-11-21T12:08:03;9.30;99.90
5358;DHT22;2702;51.014;7.170;2023-11-21T12:10:33;9.20;99.90
5358;DHT22;2702;51.014;7.170;2023-11-21T12:13:07;9.30;99.90
5358;DHT22;2702;51.014;7.170;2023-11-21T12:15:35;9.40;99.90
5358;DHT22;2702;51.014;7.170;2023-11-21T12:18:02;9.50;99.90
5358;DHT22;2702;51.014;7.170;2023-11-21T12:20:31;9.50;99.90
5358;DHT22;2702;51.014;7.170;2023-11-21T12:22:59;9.40;99.90
5358;DHT22;2702;51.014;7.170;2023-11-21T12:25:27;9.40;99.90
5358;DHT22;2702;51.014;7.170;2023-11-21T12:28:02;9.30;99.90
5358;DHT22;2702;51.014;7.170;2023-11-21T12:30:30;9.20;99.90
5358;DHT22;2702;51.014;7.170;2023-11-21T12:32:59;9.20;99.90
5358;DHT22;2702;51.014;7.170;2023-11-21T12:35:34;9.20;99.90
5358;DHT22;2702;51.014;7.170;2023-11-21T12:38:02;9.20;99.90
5358;DHT22;2702;51.014;7.170;2023-11-21T12:40:29;9.20;99.90
5358;DHT22;2702;51.014;7.170;2023-11-21T12:42:58;9.30;99.90
5358;DHT22;2702;51.014;7.170;2023-11-21T12:45:27;9.20;99.90
5358;DHT22;2702;51.014;7.170;2023-11-21T12:48:04;9.10;99.90
5358;DHT22;2702;51.014;7.170;2023-11-21T12:50:35;9.10;99.90
5358;DHT22;2702;51.014;7.170;2023-11-21T12:53:09;9.20;99.90
5358;DHT22;2702;51.014;7.170;2023-11-21T12:55:38;9.20;99.90
5358;DHT22;2702;51.014;7.170;2023-11-21T12:58:07;9.20;99.90
5358;DHT22;2702;51.014;7.170;2023-11-21T13:00:42;9.20;99.90
5358;DHT22;2702;51.014;7.170;2023-11-21T13:03:10;9.20;99.90
5358;DHT22;2702;51.014;7.170;2023-11-21T13:05:39;9.10;99.90
5358;DHT22;2702;51.014;7.170;2023-11-21T13:08:12;9.20;99.90
5358;DHT22;2702;51.014;7.170;2023-11-21T13:10:40;9.30;99.90
5358;DHT22;2702;51.014;7.170;2023-11-21T13:13:11;9.30;99.90
5358;DHT22;2702;51.014;7.170;2023-11-21T13:18:26;9.20;99.90
5358;DHT22;2702;51.014;7.170;2023-11-21T13:20:57;9.30;99.90
5358;DHT22;2702;51.014;7.170;2023-11-21T13:23:26;9.30;99.90
5358;DHT22;2702;51.014;7.170;2023-11-21T13:25:53;9.30;99.90
5358;DHT22;2702;51.014;7.170;2023-11-21T13:28:20;9.40;99.90
5358;DHT22;2702;51.014;7.170;2023-11-21T13:30:48;9.30;99.90
5358;DHT22;2702;51.014;7.170;2023-11-21T13:33:18;9.30;99.90
5358;DHT22;2702;51.014;7.170;2023-11-21T13:35:48;9.40;99.90
5358;DHT22;2702;51.014;7.170;2023-11-21T13:38:17;9.20;99.90
5358;DHT22;2702;51.014;7.170;2023-11-21T13:40:49;9.10;99.90
5358;DHT22;2702;51.014;7.170;2023-11-21T13:43:24;9.10;99.90
5358;DHT22;2702;51.014;7.170;2023-11-21T13:45:53;9.10;99.90
5358;DHT22;2702;51.014;7.170;2023-11-21T13:48:29;9.10;99.90
5358;DHT22;2702;51.014;7.170;2023-11-21T13:51:07;9.20;99.90
5358;DHT22;2702;51.014;7.170;2023-11-21T13:53:47;9.10;99.90
5358;DHT22;2702;51.014;7.170;2023-11-21T13:56:16;9.20;99.90
5358;DHT22;2702;51.014;7.170;2023-11-21T13:58:47;9.20;99.90
5358;DHT22;2702;51.014;7.170;2023-11-21T14:01:23;9.10;99.90
5358;DHT22;2702;51.014;7.170;2023-11-21T14:04:00;9.10;99.90
5358;DHT22;2702;51.014;7.170;2023-11-21T14:06:51;9.10;99.90
5358;DHT22;2702;51.014;7.170;2023-11-21T14:09:22;9.00;99.90
5358;DHT22;2702;51.014;7.170;2023-11-21T14:11:53;9.10;99.90
5358;DHT22;2702;51.014;7.170;2023-11-21T14:14:24;9.10;99.90
5358;DHT22;2702;51.014;7.170;2023-11-21T14:16:52;9.10;99.90
5358;DHT22;2702;51.014;7.170;2023-11-21T14:19:18;9.00;99.90
5358;DHT22;2702;51.014;7.170;2023-11-21T14:21:45;9.00;99.90
5358;DHT22;2702;51.014;7.170;2023-11-21T14:24:13;9.00;99.90
5358;DHT22;2702;51.014;7.170;2023-11-21T14:26:43;9.00;99.90
5358;DHT22;2702;51.014;7.170;2023-11-21T14:29:13;9.00;99.90
5358;DHT22;2702;51.014;7.170;2023-11-21T14:31:42;9.00;99.90
5358;DHT22;2702;51.014;7.170;2023-11-21T14:34:09;9.00;99.90
5358;DHT22;2702;51.014;7.170;2023-11-21T14:36:38;9.00;99.90
5358;DHT22;2702;51.014;7.170;2023-11-21T14:39:06;9.00;99.90
5358;DHT22;2702;51.014;7.170;2023-11-21T14:41:35;9.00;99.90
5358;DHT22;2702;51.014;7.170;2023-11-21T14:44:04;9.00;99.90
5358;DHT22;2702;51.014;7.170;2023-11-21T14:46:33;8.90;99.90
5358;DHT22;2702;51.014;7.170;2023-11-21T14:49:01;9.00;99.90
5358;DHT22;2702;51.014;7.170;2023-11-21T14:51:52;9.00;99.90
5358;DHT22;2702;51.014;7.170;2023-11-21T14:54:22;9.00;99.90
5358;DHT22;2702;51.014;7.170;2023-11-21T14:57:10;9.00;99.90
5358;DHT22;2702;51.014;7.170;2023-11-21T14:59:46;8.90;99.90
5358;DHT22;2702;51.014;7.170;2023-11-21T15:02:16;9.10;99.90
5358;DHT22;2702;51.014;7.170;2023-11-21T15:04:44;9.10;99.90
5358;DHT22;2702;51.014;7.170;2023-11-21T15:07:10;9.10;99.90
5358;DHT22;2702;51.014;7.170;2023-11-21T15:09:38;9.10;99.90
5358;DHT22;2702;51.014;7.170;2023-11-21T15:12:07;9.20;99.90
5358;DHT22;2702;51.014;7.170;2023-11-21T15:14:37;9.20;99.90
5358;DHT22;2702;51.014;7.170;2023-11-21T15:17:04;9.20;99.90
5358;DHT22;2702;51.014;7.170;2023-11-21T15:19:31;9.20;99.90
5358;DHT22;2702;51.014;7.170;2023-11-21T15:21:58;9.20;99.90
5358;DHT22;2702;51.014;7.170;2023-11-21T15:24:24;9.10;99.90
5358;DHT22;2702;51.014;7.170;2023-11-21T15:26:51;9.10;99.90
5358;DHT22;2702;51.014;7.170;2023-11-21T15:29:17;9.10;99.90
5358;DHT22;2702;51.014;7.170;2023-11-21T15:31:46;9.10;99.90
5358;DHT22;2702;51.014;7.170;2023-11-21T15:34:15;9.00;99.90
5358;DHT22;2702;51.014;7.170;2023-11-21T15:36:42;9.00;99.90
5358;DHT22;2702;51.014;7.170;2023-11-21T15:39:08;9.00;99.90
5358;DHT22;2702;51.014;7.170;2023-11-21T15:41:38;9.00;99.90
5358;DHT22;2702;51.014;7.170;2023-11-21T15:44:06;9.00;99.90
5358;DHT22;2702;51.014;7.170;2023-11-21T15:46:36;9.00;99.90
5358;DHT22;2702;51.014;7.170;2023-11-21T15:49:04;9.00;99.90
5358;DHT22;2702;51.014;7.170;2023-11-21T15:51:48;9.00;99.90
5358;DHT22;2702;51.014;7.170;2023-11-21T15:54:25;8.90;99.90
5358;DHT22;2702;51.014;7.170;2023-11-21T15:56:53;8.90;99.90
5358;DHT22;2702;51.014;7.170;2023-11-21T15:59:24;8.90;99.90
5358;DHT22;2702;51.014;7.170;2023-11-21T16:01:57;9.00;99.90
5358;DHT22;2702;51.014;7.170;2023-11-21T16:04:24;9.00;99.90
5358;DHT22;2702;51.014;7.170;2023-11-21T16:06:53;8.90;99.90
5358;DHT22;2702;51.014;7.170;2023-11-21T16:09:19;9.00;99.90
5358;DHT22;2702;51.014;7.170;2023-11-21T16:11:52;8.90;99.90
5358;DHT22;2702;51.014;7.170;2023-11-21T16:14:24;8.90;99.90
5358;DHT22;2702;51.014;7.170;2023-11-21T16:16:54;8.90;99.90
5358;DHT22;2702;51.014;7.170;2023-11-21T16:19:22;8.90;99.90
5358;DHT22;2702;51.014;7.170;2023-11-21T16:21:48;8.90;99.90
5358;DHT22;2702;51.014;7.170;2023-11-21T16:24:15;8.90;99.90
5358;DHT22;2702;51.014;7.170;2023-11-21T16:26:45;8.90;99.90
5358;DHT22;2702;51.014;7.170;2023-11-21T16:29:12;8.80;99.90
5358;DHT22;2702;51.014;7.170;2023-11-21T16:31:39;8.90;99.90
5358;DHT22;2702;51.014;7.170;2023-11-21T16:34:12;9.00;99.90
5358;DHT22;2702;51.014;7.170;2023-11-21T16:36:40;9.00;99.90
5358;DHT22;2702;51.014;7.170;2023-11-21T16:39:09;8.80;99.90
5358;DHT22;2702;51.014;7.170;2023-11-21T16:41:39;8.80;99.90
5358;DHT22;2702;51.014;7.170;2023-11-21T16:44:06;8.80;99.90